createdAt,value
2022-07-28T00:00:16.103Z,54.65
2022-07-28T00:02:45.998Z,54.07
2022-07-28T00:05:15.817Z,54.71
2022-07-28T00:07:48.422Z,54.70
2022-07-28T00:10:18.237Z,54.60
2022-07-28T00:12:48.015Z,54.56
2022-07-28T00:15:17.757Z,55.00
2022-07-28T00:17:47.524Z,54.74
2022-07-28T00:20:17.301Z,54.53
2022-07-28T00:22:49.817Z,54.32
2022-07-28T00:25:19.567Z,54.92
2022-07-28T00:27:49.293Z,54.86
2022-07-28T00:30:19.358Z,55.01
2022-07-28T00:32:49.431Z,54.87
2022-07-28T00:35:30.371Z,54.54
2022-07-28T00:38:03.958Z,54.88
2022-07-28T00:40:45.921Z,55.09
2022-07-28T00:43:15.616Z,55.17
2022-07-28T00:45:45.558Z,55.93
2022-07-28T00:48:15.275Z,55.83
2022-07-28T00:50:46.501Z,55.79
2022-07-28T00:53:19.984Z,56.09
2022-07-28T00:56:03.388Z,56.54
2022-07-28T00:58:37.413Z,56.48
2022-07-28T01:01:07.862Z,56.78
2022-07-28T01:03:39.250Z,57.05
2022-07-28T01:06:16.572Z,58.05
2022-07-28T01:08:59.692Z,57.38
2022-07-28T01:11:41.578Z,57.41
2022-07-28T01:14:18.455Z,57.72
2022-07-28T01:16:53.072Z,57.07
2022-07-28T01:19:38.640Z,57.79
2022-07-28T01:22:12.689Z,58.60
2022-07-28T01:24:54.071Z,58.74
2022-07-28T01:27:39.793Z,58.26
2022-07-28T01:30:13.393Z,58.08
2022-07-28T01:32:49.326Z,58.55
2022-07-28T01:35:23.829Z,59.34
2022-07-28T01:38:00.529Z,59.62
2022-07-28T01:40:36.259Z,58.60
2022-07-28T01:43:13.395Z,58.43
2022-07-28T01:45:44.302Z,58.80
2022-07-28T01:48:19.922Z,58.59
2022-07-28T01:50:51.695Z,58.31
2022-07-28T01:53:24.229Z,59.45
2022-07-28T01:55:55.975Z,59.66
2022-07-28T01:58:27.313Z,60.26
2022-07-28T02:00:59.058Z,60.23
2022-07-28T02:03:33.186Z,60.28
2022-07-28T02:06:04.735Z,60.86
2022-07-28T02:08:36.088Z,60.17
2022-07-28T02:11:18.326Z,60.05
2022-07-28T02:13:51.237Z,61.29
2022-07-28T02:16:25.269Z,61.89
2022-07-28T02:19:01.628Z,60.76
2022-07-28T02:21:36.259Z,61.61
2022-07-28T02:24:08.466Z,60.90
2022-07-28T02:26:42.489Z,59.88
2022-07-28T02:29:40.560Z,60.20
2022-07-28T02:32:27.018Z,60.66
2022-07-28T02:35:06.065Z,61.24
2022-07-28T02:37:41.090Z,60.49
2022-07-28T02:40:19.318Z,60.90
2022-07-28T02:42:51.839Z,61.56
2022-07-28T02:45:26.525Z,61.96
2022-07-28T02:48:01.505Z,61.93
2022-07-28T02:50:33.830Z,61.48
2022-07-28T02:53:15.247Z,62.51
2022-07-28T02:55:47.820Z,62.27
2022-07-28T02:58:18.618Z,61.49
2022-07-28T03:00:48.870Z,61.41
2022-07-28T03:03:20.067Z,61.38
2022-07-28T03:05:53.223Z,61.32
2022-07-28T03:08:23.205Z,60.74
2022-07-28T03:10:52.917Z,62.21
2022-07-28T03:13:22.740Z,63.09
2022-07-28T03:15:52.512Z,63.67
2022-07-28T03:18:22.223Z,62.77
2022-07-28T03:20:54.592Z,62.40
2022-07-28T03:23:29.711Z,62.41
2022-07-28T03:26:04.713Z,62.91
2022-07-28T03:28:36.188Z,62.56
2022-07-28T03:31:10.210Z,62.98
2022-07-28T03:33:40.345Z,62.09
2022-07-28T03:36:21.821Z,61.63
2022-07-28T03:38:57.138Z,62.61
2022-07-28T03:41:29.514Z,62.71
2022-07-28T03:44:00.133Z,62.20
2022-07-28T03:46:30.082Z,62.20
2022-07-28T03:49:00.133Z,61.75
2022-07-28T03:51:32.717Z,62.94
2022-07-28T03:54:02.449Z,63.28
2022-07-28T03:56:32.184Z,62.98
2022-07-28T03:59:01.922Z,62.66
2022-07-28T04:01:31.841Z,63.04
2022-07-28T04:04:01.668Z,62.69
2022-07-28T04:06:34.039Z,62.68
2022-07-28T04:09:03.789Z,62.72
2022-07-28T04:11:33.595Z,63.97
2022-07-28T04:14:03.318Z,63.44
2022-07-28T04:16:33.118Z,64.42
2022-07-28T04:19:03.039Z,63.99
2022-07-28T04:21:35.891Z,63.99
2022-07-28T04:24:05.632Z,64.10
2022-07-28T04:26:35.385Z,65.09
2022-07-28T04:29:05.093Z,64.75
2022-07-28T04:31:34.979Z,65.42
2022-07-28T04:34:04.642Z,66.13
2022-07-28T04:36:42.139Z,64.84
2022-07-28T04:39:12.325Z,66.14
2022-07-28T04:41:42.516Z,65.96
2022-07-28T04:44:13.788Z,67.63
2022-07-28T04:46:44.746Z,68.23
2022-07-28T04:49:14.635Z,66.57
2022-07-28T04:51:50.744Z,67.77
2022-07-28T04:54:26.366Z,68.70
2022-07-28T04:56:56.496Z,68.79
2022-07-28T04:59:27.013Z,68.19
2022-07-28T05:01:58.556Z,68.58
2022-07-28T05:04:28.373Z,68.91
2022-07-28T05:07:00.857Z,68.61
2022-07-28T05:09:37.736Z,68.78
2022-07-28T05:12:08.046Z,67.76
2022-07-28T05:14:37.842Z,66.80
2022-07-28T05:17:07.554Z,66.07
2022-07-28T05:19:39.512Z,67.07
2022-07-28T05:22:11.907Z,68.57
2022-07-28T05:24:41.669Z,68.19
2022-07-28T05:27:12.299Z,67.63
2022-07-28T05:29:47.069Z,64.02
2022-07-28T05:32:18.241Z,60.10
2022-07-28T05:34:48.264Z,54.84
2022-07-28T05:37:20.599Z,52.23
2022-07-28T05:39:50.294Z,53.40
2022-07-28T05:42:19.973Z,53.17
2022-07-28T05:44:49.667Z,53.63
2022-07-28T05:47:19.419Z,52.65
2022-07-28T05:49:49.162Z,52.41
2022-07-28T05:52:21.714Z,53.76
2022-07-28T05:54:51.464Z,52.57
2022-07-28T05:57:21.238Z,49.80
2022-07-28T05:59:50.944Z,46.82
2022-07-28T06:02:21.012Z,45.84
2022-07-28T06:04:50.700Z,46.34
2022-07-28T06:07:22.999Z,45.99
2022-07-28T06:10:13.313Z,45.60
2022-07-28T06:12:45.021Z,45.94
2022-07-28T06:15:16.901Z,46.82
2022-07-28T06:17:46.751Z,47.65
2022-07-28T06:20:17.079Z,49.14
2022-07-28T06:22:51.381Z,50.76
2022-07-28T06:25:22.895Z,51.98
2022-07-28T06:27:58.648Z,53.52
2022-07-28T06:30:29.580Z,54.72
2022-07-28T06:33:00.156Z,54.40
2022-07-28T06:35:30.225Z,54.85
2022-07-28T06:38:15.325Z,55.20
2022-07-28T06:40:46.233Z,54.84
2022-07-28T06:43:16.112Z,54.91
2022-07-28T06:45:45.986Z,55.65
2022-07-28T06:48:16.349Z,53.79
2022-07-28T06:50:46.156Z,52.72
2022-07-28T06:53:18.522Z,52.25
2022-07-28T06:55:50.136Z,51.31
2022-07-28T06:58:20.219Z,51.28
2022-07-28T07:00:50.040Z,50.73
2022-07-28T07:03:19.732Z,50.22
2022-07-28T07:05:51.638Z,49.89
2022-07-28T07:08:25.500Z,49.81
2022-07-28T07:10:57.040Z,49.19
2022-07-28T07:13:27.040Z,48.82
2022-07-28T07:15:56.796Z,48.66
2022-07-28T07:18:26.510Z,48.36
2022-07-28T07:20:56.603Z,49.33
2022-07-28T07:23:28.974Z,48.13
2022-07-28T07:25:59.025Z,47.99
2022-07-28T07:28:28.820Z,47.18
2022-07-28T07:30:58.635Z,47.36
2022-07-28T07:33:28.396Z,47.54
2022-07-28T07:35:58.051Z,47.57
2022-07-28T07:38:30.501Z,47.10
2022-07-28T07:41:00.835Z,47.46
2022-07-28T07:43:30.840Z,47.03
2022-07-28T07:46:00.602Z,47.13
2022-07-28T07:48:30.364Z,46.12
2022-07-28T07:51:00.093Z,46.82
2022-07-28T07:53:32.538Z,46.43
2022-07-28T07:56:02.360Z,46.68
2022-07-28T07:58:32.262Z,46.31
2022-07-28T08:01:02.075Z,45.59
2022-07-28T08:03:31.747Z,46.04
2022-07-28T08:06:02.661Z,46.30
2022-07-28T08:08:41.671Z,45.33
2022-07-28T08:11:16.126Z,44.93
2022-07-28T08:13:45.842Z,44.74
2022-07-28T08:16:15.649Z,45.64
2022-07-28T08:18:45.545Z,46.01
2022-07-28T08:21:16.410Z,45.44
2022-07-28T08:23:48.737Z,46.17
2022-07-28T08:26:18.423Z,45.31
2022-07-28T08:28:48.170Z,45.33
2022-07-28T08:31:21.964Z,45.67
2022-07-28T08:33:54.233Z,45.99
2022-07-28T08:36:24.914Z,45.08
2022-07-28T08:38:57.272Z,44.14
2022-07-28T08:41:35.215Z,44.62
2022-07-28T08:44:06.163Z,45.32
2022-07-28T08:46:38.909Z,45.04
2022-07-28T08:49:11.190Z,44.41
2022-07-28T08:51:45.782Z,45.00
2022-07-28T08:54:23.174Z,44.90
2022-07-28T08:56:53.298Z,43.14
2022-07-28T08:59:24.085Z,44.05
2022-07-28T09:01:57.795Z,44.51
2022-07-28T09:04:28.841Z,43.72
2022-07-28T09:06:59.210Z,43.22
2022-07-28T09:09:32.112Z,42.75
2022-07-28T09:12:01.850Z,43.18
2022-07-28T09:14:31.609Z,43.43
2022-07-28T09:17:03.268Z,44.36
2022-07-28T09:19:37.705Z,44.63
2022-07-28T09:22:09.029Z,43.79
2022-07-28T09:24:44.602Z,43.65
2022-07-28T09:27:16.267Z,43.28
2022-07-28T09:29:49.857Z,43.19
2022-07-28T09:32:22.271Z,43.26
2022-07-28T09:34:53.862Z,43.56
2022-07-28T09:37:27.771Z,43.88
2022-07-28T09:40:12.687Z,44.12
2022-07-28T09:42:50.347Z,43.53
2022-07-28T09:45:23.532Z,44.21
2022-07-28T09:48:12.324Z,44.50
2022-07-28T09:50:42.980Z,43.10
2022-07-28T09:53:30.590Z,43.99
2022-07-28T09:56:05.719Z,42.97
2022-07-28T09:58:35.808Z,42.58
2022-07-28T10:01:08.099Z,42.21
2022-07-28T10:03:38.706Z,42.30
2022-07-28T10:06:11.711Z,42.81
2022-07-28T10:08:47.481Z,41.65
2022-07-28T10:11:21.781Z,41.22
2022-07-28T10:14:05.539Z,41.15
2022-07-28T10:16:37.235Z,40.88
2022-07-28T10:19:08.753Z,41.29
2022-07-28T10:21:44.385Z,41.26
2022-07-28T10:24:23.589Z,40.82
2022-07-28T10:26:59.414Z,40.62
2022-07-28T10:29:31.899Z,39.93
2022-07-28T10:32:06.107Z,41.16
2022-07-28T10:34:39.090Z,40.94
2022-07-28T10:37:16.565Z,40.81
2022-07-28T10:39:52.528Z,39.32
2022-07-28T10:42:25.096Z,39.55
2022-07-28T10:44:57.515Z,40.33
2022-07-28T10:47:35.927Z,40.42
2022-07-28T10:50:08.778Z,40.51
2022-07-28T10:52:49.842Z,39.86
2022-07-28T10:55:32.062Z,40.33
2022-07-28T10:58:12.379Z,40.19
2022-07-28T11:01:05.221Z,39.45
2022-07-28T11:03:40.764Z,39.50
2022-07-28T11:06:40.269Z,38.39
2022-07-28T11:09:26.208Z,38.67
2022-07-28T11:11:58.132Z,37.53
2022-07-28T11:14:37.069Z,38.26
2022-07-28T11:17:33.597Z,38.58
2022-07-28T11:22:55.504Z,38.66
2022-07-28T11:25:25.538Z,39.37
2022-07-28T11:28:08.278Z,39.82
2022-07-28T11:30:58.390Z,39.53
2022-07-28T11:33:48.236Z,39.06
2022-07-28T11:36:18.041Z,39.27
2022-07-28T11:39:27.290Z,38.55
2022-07-28T11:41:57.180Z,37.79
2022-07-28T11:44:28.649Z,37.74
2022-07-28T11:47:18.896Z,38.12
2022-07-28T11:49:49.808Z,37.90
2022-07-28T11:52:22.639Z,37.76
2022-07-28T11:54:54.820Z,37.94
2022-07-28T11:57:26.921Z,38.84
2022-07-28T12:00:01.699Z,38.40
2022-07-28T12:02:36.164Z,39.13
2022-07-28T12:05:10.914Z,39.36
2022-07-28T12:07:44.596Z,38.33
2022-07-28T12:10:53.464Z,37.45
2022-07-28T12:13:28.997Z,36.56
2022-07-28T12:15:58.893Z,36.14
2022-07-28T12:18:31.754Z,36.52
2022-07-28T12:21:05.088Z,36.38
2022-07-28T12:23:44.186Z,36.42
2022-07-28T12:26:31.656Z,36.43
2022-07-28T12:29:02.119Z,35.37
2022-07-28T12:31:38.201Z,34.41
2022-07-28T12:34:12.729Z,34.36
2022-07-28T12:36:42.845Z,34.56
2022-07-28T12:39:13.428Z,34.61
2022-07-28T12:41:43.262Z,33.62
2022-07-28T12:44:13.703Z,33.89
2022-07-28T12:46:49.037Z,33.75
2022-07-28T12:49:27.531Z,34.16
2022-07-28T12:51:59.308Z,34.42
2022-07-28T12:54:39.698Z,35.25
2022-07-28T12:57:09.462Z,35.52
2022-07-28T12:59:41.254Z,35.09
2022-07-28T13:02:11.082Z,35.26
2022-07-28T13:04:47.179Z,34.64
2022-07-28T13:07:26.304Z,34.47
2022-07-28T13:10:05.258Z,34.43
2022-07-28T13:12:35.368Z,34.90
2022-07-28T13:15:10.558Z,34.96
2022-07-28T13:17:52.651Z,35.75
2022-07-28T13:20:25.107Z,35.89
2022-07-28T13:22:55.987Z,35.73
2022-07-28T13:25:25.878Z,35.97
2022-07-28T13:27:55.971Z,35.99
2022-07-28T13:30:26.210Z,36.87
2022-07-28T13:32:58.627Z,36.55
2022-07-28T13:35:31.255Z,35.94
2022-07-28T13:38:00.965Z,37.07
2022-07-28T13:40:30.676Z,36.35
2022-07-28T13:43:00.530Z,36.63
2022-07-28T13:45:32.478Z,36.76
2022-07-28T13:48:02.667Z,37.37
2022-07-28T13:50:35.009Z,37.13
2022-07-28T13:53:04.804Z,37.33
2022-07-28T13:55:34.562Z,36.63
2022-07-28T13:58:08.689Z,36.50
2022-07-28T14:00:38.769Z,36.68
2022-07-28T14:03:08.659Z,36.68
2022-07-28T14:05:43.965Z,36.95
2022-07-28T14:08:18.814Z,37.52
2022-07-28T14:10:48.861Z,36.60
2022-07-28T14:13:18.780Z,36.83
2022-07-28T14:15:49.548Z,36.35
2022-07-28T14:18:19.410Z,36.83
2022-07-28T14:20:57.410Z,37.00
2022-07-28T14:23:28.411Z,37.05
2022-07-28T14:26:25.435Z,36.89
2022-07-28T14:28:49.064Z,36.63
2022-07-28T14:31:19.038Z,36.65
2022-07-28T14:33:54.250Z,36.90
2022-07-28T14:36:27.169Z,36.48
2022-07-28T14:38:57.103Z,36.82
2022-07-28T14:41:26.975Z,36.18
2022-07-28T14:43:57.712Z,36.34
2022-07-28T14:46:29.688Z,35.67
2022-07-28T14:48:59.810Z,35.97
2022-07-28T14:51:32.238Z,34.92
2022-07-28T14:54:04.806Z,34.87
2022-07-28T14:56:34.587Z,33.72
2022-07-28T14:59:04.387Z,35.52
2022-07-28T15:01:35.735Z,35.37
2022-07-28T15:04:06.306Z,35.74
2022-07-28T15:06:38.717Z,35.36
2022-07-28T15:09:09.589Z,33.93
2022-07-28T15:11:41.306Z,34.18
2022-07-28T15:14:11.478Z,33.52
2022-07-28T15:16:41.449Z,33.13
2022-07-28T15:19:11.673Z,33.86
2022-07-28T15:21:45.928Z,32.44
2022-07-28T15:24:16.681Z,33.46
2022-07-28T15:26:46.839Z,34.12
2022-07-28T15:29:16.548Z,34.91
2022-07-28T15:31:47.405Z,35.20
2022-07-28T15:34:18.239Z,35.31
2022-07-28T15:36:51.239Z,34.71
2022-07-28T15:39:21.705Z,34.73
2022-07-28T15:41:51.947Z,34.62
2022-07-28T15:44:25.893Z,34.70
2022-07-28T15:46:56.339Z,34.99
2022-07-28T15:49:27.584Z,34.24
2022-07-28T15:52:01.032Z,34.98
2022-07-28T15:54:30.883Z,34.05
2022-07-28T15:57:00.717Z,33.86
2022-07-28T15:59:49.623Z,33.90
2022-07-28T16:02:20.430Z,34.29
2022-07-28T16:04:53.218Z,34.67
2022-07-28T16:07:31.249Z,35.29
2022-07-28T16:10:00.973Z,35.44
2022-07-28T16:12:30.694Z,34.77
2022-07-28T16:15:00.534Z,34.22
2022-07-28T16:17:30.251Z,34.31
2022-07-28T16:20:02.476Z,34.45
2022-07-28T16:22:37.697Z,34.72
2022-07-28T16:25:09.436Z,34.95
2022-07-28T16:27:39.214Z,34.45
2022-07-28T16:30:11.334Z,34.35
2022-07-28T16:32:42.286Z,35.02
2022-07-28T16:35:13.421Z,34.82
2022-07-28T16:37:45.961Z,35.35
2022-07-28T16:40:15.987Z,35.63
2022-07-28T16:42:45.769Z,35.27
2022-07-28T16:45:15.530Z,35.75
2022-07-28T16:47:45.393Z,35.61
2022-07-28T16:50:19.160Z,34.80
2022-07-28T16:52:51.506Z,35.53
2022-07-28T16:55:23.710Z,34.98
2022-07-28T16:57:53.919Z,35.48
2022-07-28T17:00:25.829Z,35.81
2022-07-28T17:02:55.689Z,36.88
2022-07-28T17:05:25.871Z,35.92
2022-07-28T17:07:58.480Z,35.58
2022-07-28T17:10:28.476Z,36.00
2022-07-28T17:12:58.732Z,35.59
2022-07-28T17:15:28.735Z,34.99
2022-07-28T17:17:58.580Z,35.07
2022-07-28T17:20:28.401Z,34.96
2022-07-28T17:23:00.825Z,35.10
2022-07-28T17:28:20.235Z,35.64
2022-07-28T17:30:50.012Z,35.37
2022-07-28T17:33:19.750Z,35.76
2022-07-28T17:35:49.445Z,35.66
2022-07-28T17:38:28.176Z,36.52
2022-07-28T17:41:04.033Z,35.88
2022-07-28T17:43:34.106Z,35.45
2022-07-28T17:46:08.379Z,34.95
2022-07-28T17:48:40.564Z,35.53
2022-07-28T17:51:10.339Z,35.91
2022-07-28T17:53:43.730Z,35.50
2022-07-28T17:56:15.512Z,35.84
2022-07-28T17:58:45.734Z,36.23
2022-07-28T18:01:17.680Z,36.94
2022-07-28T18:03:59.044Z,36.14
2022-07-28T18:06:32.577Z,37.84
2022-07-28T18:09:07.868Z,38.05
2022-07-28T18:11:56.835Z,38.04
2022-07-28T18:14:29.314Z,38.41
2022-07-28T18:16:59.501Z,38.82
2022-07-28T18:19:29.629Z,37.88
2022-07-28T18:21:59.683Z,39.07
2022-07-28T18:24:32.147Z,37.64
2022-07-28T18:27:02.041Z,38.48
2022-07-28T18:29:38.547Z,38.95
2022-07-28T18:32:10.643Z,38.05
2022-07-28T18:34:41.399Z,39.84
2022-07-28T18:37:11.130Z,40.40
2022-07-28T18:39:43.540Z,41.21
2022-07-28T18:42:13.409Z,43.54
2022-07-28T18:44:43.136Z,45.48
2022-07-28T18:47:13.636Z,43.53
2022-07-28T18:49:43.481Z,42.39
2022-07-28T18:52:13.241Z,43.13
2022-07-28T18:54:45.593Z,39.51
2022-07-28T18:57:15.357Z,43.49
2022-07-28T18:59:50.191Z,45.03
2022-07-28T19:02:22.139Z,45.31
2022-07-28T19:04:56.096Z,42.77
2022-07-28T19:07:25.944Z,40.19
2022-07-28T19:09:58.857Z,42.79
2022-07-28T19:12:31.262Z,44.89
2022-07-28T19:15:01.329Z,44.28
2022-07-28T19:17:31.397Z,42.96
2022-07-28T19:20:01.299Z,44.15
2022-07-28T19:22:30.991Z,44.56
2022-07-28T19:25:03.520Z,43.10
2022-07-28T19:27:34.347Z,42.09
2022-07-28T19:30:04.015Z,43.11
2022-07-28T19:32:33.738Z,42.42
2022-07-28T19:35:04.043Z,42.61
2022-07-28T19:37:33.706Z,41.12
2022-07-28T19:40:06.416Z,41.83
2022-07-28T19:42:36.630Z,41.08
2022-07-28T19:45:07.077Z,40.70
2022-07-28T19:47:37.233Z,41.01
2022-07-28T19:50:08.255Z,40.17
2022-07-28T19:52:37.931Z,40.52
2022-07-28T19:55:12.798Z,40.36
2022-07-28T19:57:48.049Z,39.67
2022-07-28T20:00:19.331Z,40.44
2022-07-28T20:02:49.128Z,40.51
2022-07-28T20:05:19.154Z,40.18
2022-07-28T20:07:48.875Z,40.02
2022-07-28T20:10:22.199Z,39.94
2022-07-28T20:12:52.010Z,39.35
2022-07-28T20:15:22.238Z,40.62
2022-07-28T20:17:52.142Z,43.92
2022-07-28T20:20:22.143Z,57.65
2022-07-28T20:22:51.830Z,56.24
2022-07-28T20:25:24.121Z,62.37
2022-07-28T20:27:54.265Z,63.36
2022-07-28T20:30:24.080Z,65.39
2022-07-28T20:32:54.015Z,60.33
2022-07-28T20:35:23.677Z,61.82
2022-07-28T20:37:53.316Z,62.63
2022-07-28T20:40:25.899Z,61.66
2022-07-28T20:42:56.425Z,63.33
2022-07-28T20:45:26.540Z,63.99
2022-07-28T20:47:56.261Z,63.58
2022-07-28T20:50:26.161Z,63.96
2022-07-28T20:52:55.840Z,64.72
2022-07-28T20:55:28.313Z,64.35
2022-07-28T20:57:58.505Z,64.75
2022-07-28T21:00:28.363Z,65.09
2022-07-28T21:02:58.108Z,65.35
2022-07-28T21:05:35.858Z,65.94
2022-07-28T21:08:09.485Z,65.55
2022-07-28T21:10:49.094Z,65.47
2022-07-28T21:13:18.817Z,66.56
2022-07-28T21:15:48.423Z,66.86
2022-07-28T21:18:18.323Z,67.37
2022-07-28T21:20:47.981Z,68.51
2022-07-28T21:23:18.941Z,68.50
2022-07-28T21:25:51.533Z,68.68
2022-07-28T21:28:33.762Z,68.93
2022-07-28T21:31:03.420Z,69.08
2022-07-28T21:33:33.164Z,66.32
2022-07-28T21:36:03.064Z,67.70
2022-07-28T21:38:32.749Z,68.54
2022-07-28T21:41:05.106Z,66.59
2022-07-28T21:43:34.860Z,66.79
2022-07-28T21:46:04.891Z,67.16
2022-07-28T21:48:34.820Z,68.11
2022-07-28T21:51:04.502Z,69.56
2022-07-28T21:53:47.856Z,68.41
2022-07-28T21:56:20.666Z,70.22
2022-07-28T21:58:51.169Z,72.50
2022-07-28T22:01:21.065Z,72.21
2022-07-28T22:03:50.931Z,73.63
2022-07-28T22:06:22.024Z,72.91
2022-07-28T22:08:54.065Z,73.28
2022-07-28T22:11:26.733Z,72.77
2022-07-28T22:13:56.460Z,72.82
2022-07-28T22:16:26.288Z,73.52
2022-07-28T22:18:56.067Z,72.98
2022-07-28T22:21:25.727Z,72.96
2022-07-28T22:23:55.386Z,73.58
2022-07-28T22:26:27.674Z,74.84
2022-07-28T22:28:57.355Z,75.51
2022-07-28T22:31:27.025Z,75.88
2022-07-28T22:33:56.731Z,77.39
2022-07-28T22:36:26.414Z,77.14
2022-07-28T22:38:56.789Z,78.35
2022-07-28T22:41:29.165Z,78.68
2022-07-28T22:43:59.290Z,76.78
2022-07-28T22:46:29.013Z,78.07
2022-07-28T22:48:58.871Z,76.68
2022-07-28T22:51:28.868Z,76.56
2022-07-28T22:54:00.632Z,76.90
2022-07-28T22:56:35.010Z,78.27
2022-07-28T22:59:08.001Z,78.78
2022-07-28T23:01:37.856Z,78.41
2022-07-28T23:04:09.259Z,77.12
2022-07-28T23:06:39.063Z,77.26
2022-07-28T23:09:09.141Z,77.47
2022-07-28T23:11:41.582Z,77.34
2022-07-28T23:14:25.921Z,78.45
2022-07-28T23:16:55.646Z,76.65
2022-07-28T23:19:25.370Z,77.41
2022-07-28T23:21:55.271Z,78.61
2022-07-28T23:24:25.412Z,78.82
2022-07-28T23:26:57.727Z,79.01
2022-07-28T23:29:27.456Z,78.55
2022-07-28T23:31:57.242Z,78.62
2022-07-28T23:34:27.036Z,76.69
2022-07-28T23:36:56.790Z,78.76
2022-07-28T23:39:26.576Z,78.75
2022-07-28T23:41:59.089Z,78.19
2022-07-28T23:44:28.863Z,78.71
2022-07-28T23:46:58.666Z,77.81
2022-07-28T23:49:28.622Z,79.04
2022-07-28T23:51:58.427Z,77.86
2022-07-28T23:54:28.174Z,78.17
2022-07-28T23:57:00.620Z,78.44
2022-07-28T23:59:30.358Z,79.21
